ITY636 LIRF-KIAH
Flight info
| Callsign | ITY636 |
|---|---|
| Flight time | N/A |
| Altitude | 32000 |
| Route | PODOX DCT TOBGA DCT DOBIM DCT PIGOS DCT BODRU DCT KOTIT DCT ETREK DCT NOQAS DCT LERGA DCT FOUCO/N0478F340 DCT MANAK UY110 TIRAV UT183 BAGAD DCT AMPOP DCT LULOX DCT LIMRI/M083F350 NATF TUDEP/N0485F360 DCT YNA DCT YYY DCT YBG DCT YOW DCT LETAK DCT PEVNI Q806 GGUCE/N0472F380 DCT RINTE DCT TIIDE DCT LITTR DCT CVE DRLLR5 |
| Aircraft | A339/H-SADE1E2E3GHIJ3J5M1P2RWXY/LB2D1 |
Departure
| Time | 2026-05-05 19:38 |
|---|---|
| Airport | Rome–Fiumicino Leonardo da Vinci International Airport (LIRF) |
Arrival
| Time | N/A |
|---|---|
| Airport | George Bush Intercontinental Airport (KIAH) |
| Time | Latitude | Longitude | Altitude | Speed | Heading |
|---|---|---|---|---|---|
| 2026-05-05 19:01 | 41.79583 | 12.24053 | 20 ft | 0 kts | 70° |
| 2026-05-05 19:25 | 41.79582 | 12.24053 | 20 ft | 0 kts | 75° |
| 2026-05-05 19:25 | 41.79579 | 12.24052 | 20 ft | 0 kts | 90° |
| 2026-05-05 19:25 | 41.79579 | 12.24051 | 20 ft | 7 kts | 88° |
| 2026-05-05 19:26 | 41.79578 | 12.24017 | 22 ft | 5 kts | 73° |
| 2026-05-05 19:26 | 41.79571 | 12.23987 | 23 ft | 2 kts | 69° |
| 2026-05-05 19:26 | 41.79566 | 12.23969 | 25 ft | 2 kts | 62° |
| 2026-05-05 19:26 | 41.79559 | 12.23953 | 25 ft | 2 kts | 41° |
| 2026-05-05 19:27 | 41.79549 | 12.23938 | 25 ft | 2 kts | 4° |
| 2026-05-05 19:27 | 41.79544 | 12.23935 | 25 ft | 0 kts | 345° |
| 2026-05-05 19:28 | 41.79551 | 12.23932 | 25 ft | 3 kts | 343° |
| 2026-05-05 19:29 | 41.79595 | 12.23913 | 20 ft | 12 kts | 341° |
| 2026-05-05 19:29 | 41.79683 | 12.23838 | 19 ft | 14 kts | 292° |
| 2026-05-05 19:29 | 41.79674 | 12.23780 | 19 ft | 0 kts | 253° |
| 2026-05-05 19:29 | 41.79685 | 12.23763 | 21 ft | 6 kts | 307° |
| 2026-05-05 19:30 | 41.79764 | 12.23713 | 17 ft | 20 kts | 342° |
| 2026-05-05 19:30 | 41.79901 | 12.23651 | 23 ft | 0 kts | 345° |
| 2026-05-05 19:30 | 41.79902 | 12.23651 | 23 ft | 1 kts | 346° |
| 2026-05-05 19:30 | 41.79932 | 12.23642 | 27 ft | 0 kts | 345° |
| 2026-05-05 19:31 | 41.79933 | 12.23642 | 27 ft | 2 kts | 345° |
| 2026-05-05 19:31 | 41.80047 | 12.23596 | 26 ft | 30 kts | 341° |
| 2026-05-05 19:31 | 41.80252 | 12.23509 | 28 ft | 31 kts | 342° |
| 2026-05-05 19:31 | 41.80461 | 12.23421 | 20 ft | 31 kts | 342° |
| 2026-05-05 19:32 | 41.80671 | 12.23332 | 16 ft | 32 kts | 342° |
| 2026-05-05 19:32 | 41.80884 | 12.23243 | 15 ft | 32 kts | 343° |
| 2026-05-05 19:32 | 41.81089 | 12.23158 | 20 ft | 30 kts | 342° |
| 2026-05-05 19:32 | 41.81282 | 12.23077 | 21 ft | 29 kts | 342° |
| 2026-05-05 19:33 | 41.81443 | 12.23009 | 19 ft | 24 kts | 342° |
| 2026-05-05 19:33 | 41.81524 | 12.22908 | 17 ft | 12 kts | 308° |
| 2026-05-05 19:33 | 41.81547 | 12.22858 | 16 ft | 0 kts | 298° |
| 2026-05-05 19:36 | 41.81561 | 12.22816 | 16 ft | 17 kts | 290° |
| 2026-05-05 19:37 | 41.81520 | 12.22669 | 15 ft | 17 kts | 209° |
| 2026-05-05 19:37 | 41.81470 | 12.22679 | 15 ft | 15 kts | 160° |
| 2026-05-05 19:37 | 41.81097 | 12.22835 | 19 ft | 95 kts | 162° |
| 2026-05-05 19:37 | 41.80242 | 12.23194 | 24 ft | 158 kts | 162° |
| 2026-05-05 19:38 | 41.79087 | 12.23658 | 408 ft | 173 kts | 162° |
| 2026-05-05 19:38 | 41.77978 | 12.24091 | 1380 ft | 162 kts | 162° |
| 2026-05-05 19:38 | 41.76891 | 12.24566 | 2147 ft | 173 kts | 163° |
| 2026-05-05 19:38 | 41.75665 | 12.25058 | 2553 ft | 197 kts | 173° |
| 2026-05-05 19:39 | 41.74271 | 12.24898 | 3139 ft | 202 kts | 201° |
| 2026-05-05 19:39 | 41.73073 | 12.23893 | 3805 ft | 214 kts | 223° |
| 2026-05-05 19:39 | 41.72135 | 12.22182 | 4013 ft | 242 kts | 235° |
| 2026-05-05 19:39 | 41.71213 | 12.20231 | 4537 ft | 252 kts | 235° |
| 2026-05-05 19:40 | 41.70244 | 12.18264 | 5139 ft | 253 kts | 234° |
| 2026-05-05 19:40 | 41.69531 | 12.16115 | 5780 ft | 257 kts | 256° |
| 2026-05-05 19:40 | 41.69571 | 12.13701 | 6324 ft | 266 kts | 282° |
| 2026-05-05 19:40 | 41.70415 | 12.11473 | 6967 ft | 272 kts | 301° |
| 2026-05-05 19:41 | 41.71434 | 12.09332 | 7479 ft | 275 kts | 296° |
| 2026-05-05 19:41 | 41.72237 | 12.07016 | 8097 ft | 273 kts | 286° |
| 2026-05-05 19:41 | 41.72809 | 12.04601 | 8762 ft | 272 kts | 282° |
| 2026-05-05 19:41 | 41.73259 | 12.02139 | 9363 ft | 274 kts | 279° |
| 2026-05-05 19:42 | 41.73661 | 11.99636 | 9970 ft | 276 kts | 279° |
| 2026-05-05 19:42 | 41.74058 | 11.97067 | 10257 ft | 290 kts | 279° |
| 2026-05-05 19:42 | 41.74480 | 11.94336 | 10403 ft | 308 kts | 280° |
| 2026-05-05 19:42 | 41.74934 | 11.91466 | 10633 ft | 322 kts | 279° |
| 2026-05-05 19:43 | 41.75405 | 11.88493 | 10984 ft | 330 kts | 279° |
| 2026-05-05 19:43 | 41.75884 | 11.85492 | 11568 ft | 331 kts | 280° |
| 2026-05-05 19:43 | 41.76367 | 11.82470 | 12107 ft | 333 kts | 280° |
| 2026-05-05 19:43 | 41.76825 | 11.79444 | 12729 ft | 331 kts | 276° |
| 2026-05-05 19:44 | 41.77043 | 11.76349 | 13154 ft | 336 kts | 274° |
| 2026-05-05 19:44 | 41.77300 | 11.73237 | 13773 ft | 336 kts | 275° |
| 2026-05-05 19:44 | 41.77577 | 11.70114 | 14231 ft | 340 kts | 275° |
| 2026-05-05 19:44 | 41.77855 | 11.66953 | 14671 ft | 343 kts | 274° |
| 2026-05-05 19:45 | 41.78128 | 11.63781 | 15196 ft | 344 kts | 274° |
| 2026-05-05 19:45 | 41.78395 | 11.60582 | 15668 ft | 346 kts | 274° |
| 2026-05-05 19:45 | 41.78706 | 11.57373 | 16100 ft | 350 kts | 280° |
| 2026-05-05 19:45 | 41.79594 | 11.54304 | 16587 ft | 357 kts | 296° |
| 2026-05-05 19:46 | 41.81073 | 11.51594 | 17036 ft | 365 kts | 309° |
| 2026-05-05 19:46 | 41.82810 | 11.49085 | 17467 ft | 368 kts | 309° |
| 2026-05-05 19:46 | 41.84372 | 11.46775 | 17901 ft | 370 kts | 308° |
| 2026-05-05 19:46 | 41.86090 | 11.44184 | 18334 ft | 373 kts | 307° |
| 2026-05-05 19:47 | 41.87806 | 11.41568 | 18738 ft | 375 kts | 307° |
| 2026-05-05 19:47 | 41.89531 | 11.38928 | 19161 ft | 377 kts | 307° |
| 2026-05-05 19:47 | 41.91261 | 11.36275 | 19571 ft | 379 kts | 307° |
| 2026-05-05 19:47 | 41.93003 | 11.33603 | 19983 ft | 381 kts | 307° |
| 2026-05-05 19:48 | 41.94753 | 11.30916 | 20402 ft | 383 kts | 307° |
| 2026-05-05 19:48 | 41.96515 | 11.28211 | 20801 ft | 386 kts | 307° |
| 2026-05-05 19:48 | 41.98287 | 11.25487 | 21231 ft | 388 kts | 307° |
| 2026-05-05 19:48 | 42.00070 | 11.22745 | 21653 ft | 390 kts | 307° |
| 2026-05-05 19:49 | 42.01860 | 11.19987 | 22054 ft | 393 kts | 307° |
| 2026-05-05 19:49 | 42.03661 | 11.17210 | 22484 ft | 395 kts | 307° |
| 2026-05-05 19:49 | 42.05473 | 11.14414 | 22897 ft | 397 kts | 307° |
| 2026-05-05 19:49 | 42.07293 | 11.11603 | 23330 ft | 400 kts | 307° |
| 2026-05-05 19:50 | 42.09128 | 11.08765 | 23656 ft | 405 kts | 307° |
| 2026-05-05 19:50 | 42.10977 | 11.05903 | 24070 ft | 405 kts | 307° |
| 2026-05-05 19:50 | 42.12825 | 11.03044 | 24506 ft | 405 kts | 307° |
| 2026-05-05 19:50 | 42.14676 | 11.00178 | 24885 ft | 406 kts | 307° |
| 2026-05-05 19:51 | 42.16331 | 10.97608 | 25127 ft | 410 kts | 306° |
| 2026-05-05 19:51 | 42.18222 | 10.94666 | 25235 ft | 419 kts | 306° |
| 2026-05-05 19:51 | 42.20136 | 10.91688 | 25528 ft | 422 kts | 306° |
| 2026-05-05 19:51 | 42.22066 | 10.88688 | 25937 ft | 423 kts | 306° |
| 2026-05-05 19:52 | 42.23994 | 10.85688 | 26292 ft | 424 kts | 306° |
| 2026-05-05 19:52 | 42.25925 | 10.82679 | 26664 ft | 425 kts | 306° |
| 2026-05-05 19:52 | 42.27868 | 10.79664 | 27026 ft | 427 kts | 307° |
| 2026-05-05 19:52 | 42.30037 | 10.76951 | 27346 ft | 435 kts | 316° |
| 2026-05-05 19:53 | 42.32547 | 10.74609 | 27699 ft | 442 kts | 323° |
| 2026-05-05 19:53 | 42.35175 | 10.72443 | 28020 ft | 444 kts | 322° |
| 2026-05-05 19:53 | 42.37796 | 10.70229 | 28332 ft | 445 kts | 321° |
| 2026-05-05 19:53 | 42.40415 | 10.67984 | 28649 ft | 446 kts | 321° |
| 2026-05-05 19:54 | 42.43035 | 10.65721 | 28967 ft | 447 kts | 321° |
| 2026-05-05 19:54 | 42.45660 | 10.63447 | 29266 ft | 449 kts | 320° |
| 2026-05-05 19:54 | 42.48295 | 10.61163 | 29561 ft | 450 kts | 320° |
| 2026-05-05 19:54 | 42.50940 | 10.58868 | 29866 ft | 452 kts | 320° |
| 2026-05-05 19:55 | 42.53591 | 10.56567 | 30187 ft | 454 kts | 320° |
| 2026-05-05 19:55 | 42.56260 | 10.54245 | 30355 ft | 457 kts | 320° |
| 2026-05-05 19:55 | 42.58938 | 10.51917 | 30644 ft | 459 kts | 320° |
| 2026-05-05 19:55 | 42.61634 | 10.49573 | 30882 ft | 460 kts | 320° |
| 2026-05-05 19:56 | 42.64336 | 10.47220 | 31105 ft | 462 kts | 320° |
| 2026-05-05 19:56 | 42.67040 | 10.44861 | 31303 ft | 463 kts | 320° |
| 2026-05-05 19:56 | 42.69762 | 10.42485 | 31492 ft | 465 kts | 320° |
| 2026-05-05 19:56 | 42.72475 | 10.40091 | 31652 ft | 464 kts | 318° |
| 2026-05-05 19:57 | 42.75026 | 10.37437 | 31806 ft | 460 kts | 313° |
| 2026-05-05 19:57 | 42.77510 | 10.34669 | 31946 ft | 462 kts | 314° |
| 2026-05-05 19:57 | 42.80010 | 10.31916 | 31973 ft | 463 kts | 314° |
| 2026-05-05 19:58 | 42.85001 | 10.26431 | 31954 ft | 461 kts | 314° |
| 2026-05-05 19:58 | 42.89982 | 10.20923 | 31975 ft | 461 kts | 314° |
| 2026-05-05 19:59 | 42.94930 | 10.15434 | 31969 ft | 462 kts | 314° |
| 2026-05-05 19:59 | 42.99917 | 10.09888 | 31952 ft | 464 kts | 314° |
| 2026-05-05 20:00 | 43.04927 | 10.04302 | 31969 ft | 466 kts | 314° |
| 2026-05-05 20:00 | 43.09957 | 9.98685 | 31984 ft | 467 kts | 314° |
| 2026-05-05 20:01 | 43.14995 | 9.93047 | 31986 ft | 468 kts | 314° |
| 2026-05-05 20:01 | 43.20032 | 9.87398 | 31972 ft | 467 kts | 314° |
| 2026-05-05 20:02 | 43.25064 | 9.81758 | 31968 ft | 469 kts | 313° |
| 2026-05-05 20:02 | 43.30115 | 9.76150 | 31966 ft | 468 kts | 313° |
| 2026-05-05 20:03 | 43.35099 | 9.70405 | 31966 ft | 468 kts | 312° |
| 2026-05-05 20:03 | 43.40107 | 9.64688 | 31966 ft | 468 kts | 313° |
| 2026-05-05 20:04 | 43.45131 | 9.58995 | 31982 ft | 468 kts | 312° |
| 2026-05-05 20:04 | 43.50148 | 9.53305 | 31972 ft | 467 kts | 312° |
| 2026-05-05 20:05 | 43.54992 | 9.47796 | 31966 ft | 466 kts | 312° |
| 2026-05-05 20:05 | 43.59957 | 9.42140 | 31971 ft | 466 kts | 311° |
| 2026-05-05 20:06 | 43.64947 | 9.36440 | 31972 ft | 465 kts | 311° |
| 2026-05-05 20:06 | 43.69928 | 9.30737 | 31962 ft | 465 kts | 311° |
| 2026-05-05 20:07 | 43.74898 | 9.25033 | 31959 ft | 464 kts | 311° |
| 2026-05-05 20:07 | 43.79866 | 9.19319 | 31955 ft | 464 kts | 311° |
| 2026-05-05 20:08 | 43.84829 | 9.13599 | 31952 ft | 464 kts | 311° |
| 2026-05-05 20:08 | 43.89793 | 9.07866 | 31966 ft | 466 kts | 310° |
| 2026-05-05 20:09 | 43.94802 | 9.02061 | 31949 ft | 470 kts | 311° |
| 2026-05-05 20:09 | 43.99817 | 8.96245 | 31949 ft | 470 kts | 310° |
| 2026-05-05 20:10 | 44.04828 | 8.90419 | 31952 ft | 469 kts | 310° |
| 2026-05-05 20:10 | 44.09834 | 8.84584 | 31960 ft | 471 kts | 310° |
| 2026-05-05 20:11 | 44.14819 | 8.78758 | 31958 ft | 471 kts | 310° |
| 2026-05-05 20:11 | 44.19838 | 8.72881 | 31959 ft | 471 kts | 310° |
| 2026-05-05 20:12 | 44.24897 | 8.66942 | 31959 ft | 473 kts | 310° |
| 2026-05-05 20:12 | 44.29931 | 8.61020 | 31984 ft | 473 kts | 310° |
| 2026-05-05 20:13 | 44.33263 | 8.57092 | 31960 ft | 473 kts | 310° |
| 2026-05-05 20:13 | 44.39719 | 8.49465 | 31961 ft | 474 kts | 310° |
| 2026-05-05 20:14 | 44.44728 | 8.43530 | 31963 ft | 472 kts | 310° |
| 2026-05-05 20:14 | 44.49730 | 8.37591 | 31967 ft | 471 kts | 310° |
| 2026-05-05 20:15 | 44.54740 | 8.31625 | 31970 ft | 474 kts | 310° |
| 2026-05-05 20:15 | 44.59753 | 8.25647 | 31968 ft | 473 kts | 309° |
| 2026-05-05 20:16 | 44.64772 | 8.19645 | 31981 ft | 474 kts | 310° |
| 2026-05-05 20:16 | 44.69794 | 8.13632 | 31974 ft | 475 kts | 310° |
| 2026-05-05 20:17 | 44.74820 | 8.07591 | 31968 ft | 475 kts | 310° |
| 2026-05-05 20:17 | 44.79823 | 8.01565 | 31971 ft | 473 kts | 310° |
| 2026-05-05 20:18 | 44.84830 | 7.95519 | 31974 ft | 476 kts | 310° |
| 2026-05-05 20:18 | 44.89822 | 7.89480 | 31974 ft | 475 kts | 310° |
| 2026-05-05 20:19 | 44.95151 | 7.83824 | 31981 ft | 489 kts | 321° |
| 2026-05-05 20:19 | 45.00931 | 7.78689 | 31981 ft | 487 kts | 318° |
| 2026-05-05 20:20 | 45.06648 | 7.73516 | 31989 ft | 489 kts | 319° |
| 2026-05-05 20:20 | 45.09483 | 7.70981 | 32159 ft | 488 kts | 319° |
| 2026-05-05 20:20 | 45.12359 | 7.68419 | 32419 ft | 488 kts | 319° |
| 2026-05-05 20:20 | 45.15231 | 7.65855 | 32549 ft | 489 kts | 320° |
| 2026-05-05 20:21 | 45.18113 | 7.63285 | 32748 ft | 489 kts | 320° |
| 2026-05-05 20:21 | 45.20988 | 7.60724 | 32925 ft | 488 kts | 320° |
| 2026-05-05 20:21 | 45.23862 | 7.58160 | 33113 ft | 488 kts | 320° |
| 2026-05-05 20:21 | 45.26713 | 7.55612 | 33297 ft | 487 kts | 319° |
| 2026-05-05 20:22 | 45.29597 | 7.53031 | 33489 ft | 486 kts | 319° |
| 2026-05-05 20:22 | 45.32284 | 7.50624 | 33639 ft | 486 kts | 319° |
| 2026-05-05 20:22 | 45.35100 | 7.48096 | 33880 ft | 483 kts | 319° |
| 2026-05-05 20:23 | 45.40797 | 7.42977 | 33986 ft | 481 kts | 319° |
| 2026-05-05 20:23 | 45.46375 | 7.37947 | 33985 ft | 481 kts | 319° |
| 2026-05-05 20:24 | 45.52027 | 7.32826 | 33978 ft | 483 kts | 319° |
| 2026-05-05 20:24 | 45.57695 | 7.27702 | 33974 ft | 480 kts | 319° |
| 2026-05-05 20:25 | 45.63343 | 7.22577 | 33977 ft | 483 kts | 319° |
| 2026-05-05 20:25 | 45.69009 | 7.17412 | 33960 ft | 482 kts | 319° |
| 2026-05-05 20:26 | 45.74646 | 7.12242 | 33949 ft | 481 kts | 319° |
| 2026-05-05 20:26 | 45.80286 | 7.07051 | 33961 ft | 482 kts | 320° |
| 2026-05-05 20:27 | 45.85930 | 7.01836 | 33945 ft | 482 kts | 320° |
| 2026-05-05 20:27 | 45.91579 | 6.96604 | 33949 ft | 483 kts | 320° |
| 2026-05-05 20:28 | 45.97283 | 6.91316 | 33927 ft | 480 kts | 320° |
| 2026-05-05 20:28 | 46.02738 | 6.86249 | 33937 ft | 481 kts | 320° |
| 2026-05-05 20:29 | 46.08373 | 6.81007 | 33939 ft | 482 kts | 320° |
| 2026-05-05 20:29 | 46.14009 | 6.75746 | 33950 ft | 482 kts | 321° |
| 2026-05-05 20:30 | 46.19350 | 6.70065 | 33912 ft | 474 kts | 311° |
| 2026-05-05 20:30 | 46.24093 | 6.63487 | 33894 ft | 472 kts | 310° |
| 2026-05-05 20:31 | 46.29455 | 6.56149 | 33910 ft | 472 kts | 311° |
| 2026-05-05 20:31 | 46.40520 | 6.41232 | 33860 ft | 472 kts | 311° |
| 2026-05-05 20:32 | 46.45368 | 6.34697 | 33895 ft | 478 kts | 312° |
| 2026-05-05 20:32 | 46.50233 | 6.28145 | 33901 ft | 477 kts | 312° |
| 2026-05-05 20:33 | 46.55083 | 6.21575 | 33901 ft | 477 kts | 312° |
| 2026-05-05 20:33 | 46.59931 | 6.14987 | 33903 ft | 477 kts | 312° |
| 2026-05-05 20:34 | 46.64770 | 6.08394 | 33904 ft | 477 kts | 311° |
| 2026-05-05 20:34 | 46.69621 | 6.01762 | 33895 ft | 479 kts | 312° |
| 2026-05-05 20:35 | 46.74482 | 5.95105 | 33896 ft | 480 kts | 312° |
| 2026-05-05 20:35 | 46.79342 | 5.88432 | 33899 ft | 480 kts | 312° |
| 2026-05-05 20:36 | 46.84329 | 5.81935 | 33894 ft | 481 kts | 314° |
| 2026-05-05 20:36 | 46.89339 | 5.75453 | 33892 ft | 481 kts | 314° |
| 2026-05-05 20:37 | 46.94371 | 5.68996 | 33894 ft | 482 kts | 315° |
| 2026-05-05 20:37 | 46.99422 | 5.62542 | 33891 ft | 482 kts | 315° |
| 2026-05-05 20:38 | 47.04469 | 5.56081 | 33886 ft | 482 kts | 315° |
| 2026-05-05 20:38 | 47.09475 | 5.49652 | 33892 ft | 481 kts | 315° |
| 2026-05-05 20:39 | 47.14508 | 5.43175 | 33887 ft | 481 kts | 315° |
| 2026-05-05 20:39 | 47.19534 | 5.36688 | 33908 ft | 480 kts | 315° |
| 2026-05-05 20:40 | 47.24589 | 5.30144 | 33892 ft | 481 kts | 315° |
| 2026-05-05 20:40 | 47.29613 | 5.23626 | 33876 ft | 481 kts | 315° |
| 2026-05-05 20:41 | 47.34637 | 5.17091 | 33883 ft | 482 kts | 315° |
| 2026-05-05 20:41 | 47.39661 | 5.10539 | 33879 ft | 482 kts | 315° |
| 2026-05-05 20:42 | 47.44644 | 5.04022 | 33889 ft | 482 kts | 315° |
| 2026-05-05 20:42 | 47.49668 | 4.97429 | 33865 ft | 483 kts | 316° |
| 2026-05-05 20:43 | 47.54701 | 4.90812 | 33863 ft | 485 kts | 316° |
| 2026-05-05 20:43 | 47.59745 | 4.84167 | 33863 ft | 485 kts | 316° |
| 2026-05-05 20:44 | 47.64784 | 4.77507 | 33869 ft | 486 kts | 316° |
| 2026-05-05 20:44 | 47.69827 | 4.70821 | 33869 ft | 486 kts | 316° |
| 2026-05-05 20:45 | 47.77384 | 4.60767 | 33868 ft | 487 kts | 316° |
| 2026-05-05 20:45 | 47.82422 | 4.54044 | 33858 ft | 486 kts | 316° |
| 2026-05-05 20:46 | 47.87459 | 4.47307 | 33855 ft | 486 kts | 316° |
| 2026-05-05 20:46 | 47.92483 | 4.40566 | 33853 ft | 486 kts | 316° |
| 2026-05-05 20:47 | 47.97503 | 4.33810 | 33843 ft | 486 kts | 316° |
| 2026-05-05 20:47 | 48.02529 | 4.27030 | 33844 ft | 487 kts | 316° |
| 2026-05-05 20:48 | 48.07545 | 4.20244 | 33838 ft | 487 kts | 316° |
| 2026-05-05 20:48 | 48.16903 | 4.07527 | 33832 ft | 487 kts | 316° |
| 2026-05-05 20:49 | 48.21066 | 4.01855 | 33832 ft | 487 kts | 316° |
| 2026-05-05 20:49 | 48.26082 | 3.95023 | 33825 ft | 487 kts | 317° |
| 2026-05-05 20:50 | 48.31345 | 3.88621 | 33823 ft | 487 kts | 321° |
| 2026-05-05 20:50 | 48.36678 | 3.82325 | 33822 ft | 487 kts | 320° |
| 2026-05-05 20:51 | 48.41967 | 3.75954 | 33818 ft | 487 kts | 320° |
| 2026-05-05 20:51 | 48.47241 | 3.69547 | 33819 ft | 487 kts | 320° |
| 2026-05-05 20:52 | 48.52510 | 3.63121 | 33812 ft | 487 kts | 320° |
| 2026-05-05 20:52 | 48.57773 | 3.56687 | 33811 ft | 487 kts | 320° |
| 2026-05-05 20:53 | 48.63025 | 3.50241 | 33811 ft | 486 kts | 321° |
| 2026-05-05 20:53 | 48.68279 | 3.43781 | 33816 ft | 487 kts | 321° |
| 2026-05-05 20:54 | 48.73497 | 3.37353 | 33810 ft | 487 kts | 321° |
| 2026-05-05 20:54 | 48.86197 | 3.21622 | 33802 ft | 487 kts | 321° |
| 2026-05-05 20:55 | 48.93467 | 3.12569 | 33816 ft | 486 kts | 321° |
| 2026-05-05 20:55 | 48.98694 | 3.06039 | 33826 ft | 486 kts | 321° |
| 2026-05-05 20:56 | 49.12621 | 2.88541 | 33826 ft | 488 kts | 321° |
| 2026-05-05 20:56 | 49.17802 | 2.82006 | 33838 ft | 488 kts | 321° |
| 2026-05-05 20:57 | 49.23031 | 2.75388 | 33837 ft | 488 kts | 321° |
| 2026-05-05 20:57 | 49.28252 | 2.68760 | 33827 ft | 488 kts | 321° |
| 2026-05-05 20:58 | 49.33471 | 2.62114 | 33845 ft | 488 kts | 321° |
| 2026-05-05 20:58 | 49.38650 | 2.55501 | 33853 ft | 488 kts | 321° |
| 2026-05-05 20:59 | 49.43808 | 2.48898 | 33867 ft | 488 kts | 321° |
| 2026-05-05 20:59 | 49.49013 | 2.42215 | 33873 ft | 488 kts | 321° |
| 2026-05-05 21:00 | 49.54219 | 2.35512 | 33876 ft | 488 kts | 321° |
| 2026-05-05 21:00 | 49.59419 | 2.28796 | 33878 ft | 488 kts | 321° |
| 2026-05-05 21:01 | 49.64615 | 2.22069 | 33875 ft | 488 kts | 320° |
| 2026-05-05 21:01 | 49.69814 | 2.15317 | 33879 ft | 488 kts | 320° |
| 2026-05-05 21:02 | 49.75000 | 2.08561 | 33878 ft | 487 kts | 320° |
| 2026-05-05 21:02 | 49.80178 | 2.01797 | 33873 ft | 487 kts | 320° |
| 2026-05-05 21:03 | 49.85346 | 1.95027 | 33878 ft | 486 kts | 320° |
| 2026-05-05 21:03 | 49.90507 | 1.88245 | 33879 ft | 486 kts | 320° |
| 2026-05-05 21:04 | 49.95659 | 1.81454 | 33885 ft | 486 kts | 320° |
| 2026-05-05 21:04 | 50.00809 | 1.74653 | 33888 ft | 486 kts | 320° |
| 2026-05-05 21:05 | 50.05964 | 1.67828 | 33891 ft | 486 kts | 320° |
| 2026-05-05 21:05 | 50.11114 | 1.60982 | 33897 ft | 487 kts | 320° |
| 2026-05-05 21:06 | 50.35637 | 1.28094 | 33920 ft | 489 kts | 319° |
| 2026-05-05 21:06 | 50.56220 | 1.00539 | 33937 ft | 489 kts | 322° |
| 2026-05-05 21:07 | 50.77514 | 0.74243 | 33944 ft | 484 kts | 321° |
| 2026-05-05 21:07 | 50.98573 | 0.47712 | 34060 ft | 484 kts | 320° |
| 2026-05-05 21:08 | 51.19405 | 0.21129 | 34031 ft | 480 kts | 320° |
| 2026-05-05 21:08 | 51.29766 | 0.07799 | 33225 ft | 478 kts | 320° |
| 2026-05-05 21:08 | 51.40905 | -0.03860 | 33717 ft | 477 kts | 328° |
| 2026-05-05 21:09 | 51.52338 | -0.14779 | 33957 ft | 477 kts | 328° |
| 2026-05-05 21:09 | 51.63768 | -0.25721 | 34054 ft | 479 kts | 328° |
| 2026-05-05 21:09 | 51.86687 | -0.47861 | 34009 ft | 481 kts | 327° |
| 2026-05-05 21:10 | 52.09591 | -0.70255 | 34011 ft | 479 kts | 327° |
| 2026-05-05 21:10 | 52.32284 | -0.92716 | 34031 ft | 474 kts | 326° |
| 2026-05-05 21:11 | 52.54652 | -1.15125 | 34044 ft | 468 kts | 327° |
| 2026-05-05 21:11 | 52.76824 | -1.37603 | 34050 ft | 467 kts | 327° |
| 2026-05-05 21:12 | 52.98781 | -1.60153 | 34044 ft | 461 kts | 327° |
| 2026-05-05 21:12 | 53.20489 | -1.82826 | 34030 ft | 460 kts | 322° |
| 2026-05-05 21:13 | 53.28636 | -1.98943 | 34058 ft | 455 kts | 301° |
| 2026-05-05 21:13 | 53.35451 | -2.16817 | 34037 ft | 457 kts | 301° |
| 2026-05-05 21:13 | 53.48994 | -2.52907 | 34062 ft | 457 kts | 300° |
| 2026-05-05 21:14 | 53.62383 | -2.89125 | 34070 ft | 455 kts | 300° |
| 2026-05-05 21:14 | 53.75547 | -3.25287 | 34047 ft | 455 kts | 300° |
| 2026-05-05 21:15 | 53.87077 | -3.63333 | 34045 ft | 452 kts | 289° |
| 2026-05-05 21:15 | 53.95713 | -4.03399 | 34059 ft | 452 kts | 289° |
| 2026-05-05 21:16 | 54.07527 | -4.40457 | 34072 ft | 454 kts | 303° |
| 2026-05-05 21:16 | 54.21990 | -4.75778 | 34030 ft | 455 kts | 303° |
| 2026-05-05 21:17 | 54.36343 | -5.11198 | 34044 ft | 453 kts | 302° |
| 2026-05-05 21:17 | 54.51329 | -5.45877 | 34069 ft | 451 kts | 298° |
| 2026-05-05 21:18 | 54.55678 | -5.65982 | 34094 ft | 448 kts | 286° |
| 2026-05-05 21:18 | 54.59477 | -5.86442 | 34104 ft | 449 kts | 286° |
| 2026-05-05 21:18 | 54.66484 | -6.27590 | 34108 ft | 445 kts | 276° |
| 2026-05-05 21:19 | 54.69595 | -6.69985 | 34102 ft | 443 kts | 276° |
| 2026-05-05 21:19 | 54.72572 | -7.12252 | 34119 ft | 442 kts | 276° |
| 2026-05-05 21:20 | 54.75393 | -7.54483 | 34120 ft | 442 kts | 276° |
| 2026-05-05 21:20 | 54.78065 | -7.96743 | 34120 ft | 441 kts | 275° |
| 2026-05-05 21:21 | 54.78835 | -8.09381 | 34132 ft | 441 kts | 275° |
| 2026-05-05 21:21 | 54.79469 | -8.19958 | 34131 ft | 441 kts | 275° |
| 2026-05-05 21:22 | 54.80095 | -8.30541 | 34135 ft | 442 kts | 275° |
| 2026-05-05 21:22 | 54.80711 | -8.41132 | 34136 ft | 442 kts | 275° |
| 2026-05-05 21:23 | 54.81317 | -8.51724 | 34139 ft | 442 kts | 275° |
| 2026-05-05 21:23 | 54.81915 | -8.62323 | 34139 ft | 442 kts | 275° |
| 2026-05-05 21:24 | 54.82503 | -8.72916 | 34148 ft | 441 kts | 275° |
| 2026-05-05 21:24 | 54.83082 | -8.83521 | 34145 ft | 441 kts | 275° |
| 2026-05-05 21:25 | 54.83652 | -8.94114 | 34148 ft | 441 kts | 275° |
| 2026-05-05 21:25 | 54.84212 | -9.04706 | 34147 ft | 441 kts | 275° |
| 2026-05-05 21:26 | 54.84762 | -9.15303 | 34149 ft | 441 kts | 275° |
| 2026-05-05 21:26 | 54.85304 | -9.25902 | 34149 ft | 441 kts | 275° |
| 2026-05-05 21:27 | 54.85836 | -9.36508 | 34147 ft | 441 kts | 274° |
| 2026-05-05 21:27 | 54.86359 | -9.47124 | 34149 ft | 441 kts | 274° |
| 2026-05-05 21:28 | 54.86874 | -9.57743 | 34155 ft | 441 kts | 274° |
| 2026-05-05 21:28 | 54.87375 | -9.68285 | 34154 ft | 441 kts | 274° |
| 2026-05-05 21:29 | 54.87872 | -9.78923 | 34153 ft | 442 kts | 274° |
| 2026-05-05 21:29 | 54.88359 | -9.89569 | 34151 ft | 442 kts | 274° |
| 2026-05-05 21:30 | 54.88838 | -10.00226 | 34155 ft | 443 kts | 274° |
| 2026-05-05 21:30 | 54.89307 | -10.10883 | 34156 ft | 443 kts | 274° |
| 2026-05-05 21:31 | 54.89767 | -10.21549 | 34157 ft | 443 kts | 274° |
| 2026-05-05 21:31 | 54.90217 | -10.32217 | 34157 ft | 443 kts | 274° |
| 2026-05-05 21:32 | 54.90659 | -10.42898 | 34153 ft | 443 kts | 274° |
| 2026-05-05 21:32 | 54.91091 | -10.53581 | 34155 ft | 443 kts | 274° |
| 2026-05-05 21:33 | 54.91514 | -10.64269 | 34161 ft | 443 kts | 274° |
| 2026-05-05 21:33 | 54.91928 | -10.74958 | 34163 ft | 444 kts | 274° |
| 2026-05-05 21:34 | 54.92333 | -10.85664 | 34165 ft | 444 kts | 274° |
| 2026-05-05 21:34 | 54.92728 | -10.96369 | 34161 ft | 444 kts | 274° |
| 2026-05-05 21:35 | 54.93114 | -11.07086 | 34157 ft | 444 kts | 274° |
| 2026-05-05 21:35 | 54.93492 | -11.17815 | 34160 ft | 445 kts | 273° |
| 2026-05-05 21:36 | 54.93859 | -11.28546 | 34162 ft | 445 kts | 273° |
| 2026-05-05 21:36 | 54.94158 | -11.37479 | 34163 ft | 445 kts | 273° |
| 2026-05-05 21:37 | 54.94509 | -11.48226 | 34164 ft | 445 kts | 273° |
| 2026-05-05 21:37 | 54.94850 | -11.58977 | 34164 ft | 445 kts | 273° |
| 2026-05-05 21:38 | 54.95182 | -11.69730 | 34161 ft | 445 kts | 273° |
| 2026-05-05 21:38 | 54.95504 | -11.80486 | 34160 ft | 446 kts | 273° |
| 2026-05-05 21:39 | 54.95817 | -11.91246 | 34161 ft | 445 kts | 273° |
| 2026-05-05 21:39 | 54.96121 | -12.02017 | 34161 ft | 445 kts | 273° |
| 2026-05-05 21:40 | 54.96415 | -12.12785 | 34154 ft | 446 kts | 273° |
| 2026-05-05 21:40 | 54.96700 | -12.23559 | 34159 ft | 446 kts | 273° |
| 2026-05-05 21:41 | 54.96975 | -12.34342 | 34164 ft | 446 kts | 273° |
| 2026-05-05 21:41 | 54.97239 | -12.45054 | 34165 ft | 446 kts | 273° |
| 2026-05-05 21:42 | 54.97496 | -12.55839 | 34165 ft | 446 kts | 272° |
| 2026-05-05 21:42 | 54.97742 | -12.66632 | 34156 ft | 446 kts | 272° |
| 2026-05-05 21:43 | 54.97980 | -12.77435 | 34161 ft | 447 kts | 272° |
| 2026-05-05 21:43 | 54.98208 | -12.88245 | 34163 ft | 447 kts | 272° |
| 2026-05-05 21:44 | 54.98426 | -12.99057 | 34164 ft | 447 kts | 272° |
| 2026-05-05 21:44 | 54.98635 | -13.09875 | 34169 ft | 447 kts | 272° |
| 2026-05-05 21:45 | 54.98835 | -13.20695 | 34156 ft | 447 kts | 272° |
| 2026-05-05 21:45 | 54.99024 | -13.31516 | 34161 ft | 448 kts | 272° |
| 2026-05-05 21:46 | 54.99205 | -13.42358 | 34169 ft | 448 kts | 272° |
| 2026-05-05 21:46 | 54.99376 | -13.53204 | 34171 ft | 448 kts | 272° |
| 2026-05-05 21:47 | 54.99538 | -13.64046 | 34172 ft | 448 kts | 272° |
| 2026-05-05 21:47 | 54.99693 | -13.74890 | 34168 ft | 448 kts | 272° |
| 2026-05-05 21:48 | 54.99841 | -13.85742 | 34171 ft | 448 kts | 272° |
| 2026-05-05 21:48 | 54.99983 | -13.96593 | 34171 ft | 448 kts | 272° |
| 2026-05-05 21:49 | 54.99973 | -14.07443 | 34168 ft | 448 kts | 271° |
| 2026-05-05 21:49 | 55.00029 | -14.18281 | 34178 ft | 448 kts | 272° |
| 2026-05-05 21:50 | 55.00082 | -14.29124 | 34165 ft | 448 kts | 271° |
| 2026-05-05 21:50 | 55.00101 | -14.39977 | 34161 ft | 449 kts | 271° |
| 2026-05-05 21:51 | 55.00106 | -14.50852 | 34166 ft | 449 kts | 271° |
| 2026-05-05 21:51 | 55.00100 | -14.61672 | 34172 ft | 450 kts | 271° |
| 2026-05-05 21:52 | 55.00073 | -14.78030 | 34182 ft | 450 kts | 271° |
| 2026-05-05 21:53 | 55.00043 | -14.88933 | 34179 ft | 450 kts | 271° |
| 2026-05-05 21:53 | 55.00515 | -14.99782 | 34162 ft | 449 kts | 282° |
| 2026-05-05 21:54 | 55.02271 | -15.10191 | 34173 ft | 448 kts | 293° |
| 2026-05-05 21:54 | 55.04566 | -15.20289 | 34179 ft | 448 kts | 292° |
| 2026-05-05 21:55 | 55.06830 | -15.30427 | 34184 ft | 449 kts | 292° |
| 2026-05-05 21:55 | 55.09089 | -15.40592 | 34185 ft | 449 kts | 292° |
| 2026-05-05 21:56 | 55.11339 | -15.50771 | 34187 ft | 449 kts | 292° |
| 2026-05-05 21:56 | 55.13580 | -15.60972 | 34177 ft | 450 kts | 292° |
| 2026-05-05 21:57 | 55.15819 | -15.71197 | 34183 ft | 451 kts | 292° |
| 2026-05-05 21:57 | 55.18053 | -15.81449 | 34187 ft | 451 kts | 292° |
| 2026-05-05 21:58 | 55.20277 | -15.91715 | 34181 ft | 452 kts | 292° |
| 2026-05-05 21:58 | 55.22496 | -16.02007 | 34205 ft | 451 kts | 292° |
| 2026-05-05 21:59 | 55.24689 | -16.12235 | 34206 ft | 451 kts | 292° |
| 2026-05-05 21:59 | 55.26885 | -16.22531 | 34186 ft | 451 kts | 293° |
| 2026-05-05 22:00 | 55.29075 | -16.32837 | 34188 ft | 451 kts | 293° |
| 2026-05-05 22:00 | 55.31257 | -16.43153 | 34191 ft | 451 kts | 293° |
| 2026-05-05 22:01 | 55.33430 | -16.53488 | 34190 ft | 451 kts | 293° |
| 2026-05-05 22:01 | 55.35592 | -16.63827 | 34184 ft | 451 kts | 292° |
| 2026-05-05 22:02 | 55.37748 | -16.74187 | 34181 ft | 451 kts | 292° |
| 2026-05-05 22:02 | 55.39896 | -16.84560 | 34185 ft | 451 kts | 292° |
| 2026-05-05 22:03 | 55.42026 | -16.94926 | 34199 ft | 449 kts | 293° |
| 2026-05-05 22:03 | 55.44146 | -17.05268 | 34190 ft | 449 kts | 293° |
| 2026-05-05 22:04 | 55.46254 | -17.15602 | 34187 ft | 448 kts | 293° |
| 2026-05-05 22:04 | 55.48351 | -17.25944 | 34184 ft | 448 kts | 293° |
| 2026-05-05 22:05 | 55.50439 | -17.36296 | 34177 ft | 448 kts | 293° |
| 2026-05-05 22:05 | 55.52515 | -17.46646 | 34179 ft | 448 kts | 293° |
| 2026-05-05 22:06 | 55.54585 | -17.57016 | 34182 ft | 448 kts | 293° |
| 2026-05-05 22:06 | 55.56645 | -17.67392 | 34187 ft | 447 kts | 293° |
| 2026-05-05 22:07 | 55.58692 | -17.77760 | 34196 ft | 446 kts | 293° |
| 2026-05-05 22:07 | 55.60728 | -17.88122 | 34195 ft | 446 kts | 293° |
| 2026-05-05 22:08 | 55.62755 | -17.98494 | 34187 ft | 446 kts | 292° |
| 2026-05-05 22:08 | 55.64771 | -18.08869 | 34186 ft | 446 kts | 292° |
| 2026-05-05 22:09 | 55.66779 | -18.19256 | 34189 ft | 446 kts | 292° |
| 2026-05-05 22:09 | 55.68775 | -18.29644 | 34189 ft | 445 kts | 293° |
| 2026-05-05 22:10 | 55.70765 | -18.40043 | 34193 ft | 446 kts | 292° |
| 2026-05-05 22:10 | 55.72724 | -18.50350 | 34209 ft | 445 kts | 292° |
| 2026-05-05 22:11 | 55.74709 | -18.60844 | 34203 ft | 444 kts | 292° |
| 2026-05-05 22:11 | 55.76662 | -18.71224 | 34199 ft | 443 kts | 292° |
| 2026-05-05 22:12 | 55.78605 | -18.81612 | 34195 ft | 443 kts | 292° |
| 2026-05-05 22:12 | 55.80538 | -18.92002 | 34187 ft | 442 kts | 292° |
| 2026-05-05 22:13 | 55.82447 | -19.02318 | 34189 ft | 442 kts | 292° |
| 2026-05-05 22:13 | 55.84360 | -19.12712 | 34186 ft | 442 kts | 292° |
| 2026-05-05 22:14 | 55.86266 | -19.23125 | 34187 ft | 442 kts | 292° |
| 2026-05-05 22:14 | 55.88157 | -19.33523 | 34227 ft | 441 kts | 292° |
| 2026-05-05 22:15 | 55.90035 | -19.43903 | 34205 ft | 440 kts | 292° |
| 2026-05-05 22:15 | 55.91902 | -19.54276 | 34201 ft | 439 kts | 292° |
| 2026-05-05 22:16 | 55.93756 | -19.64640 | 34198 ft | 438 kts | 292° |
| 2026-05-05 22:16 | 55.95600 | -19.75006 | 34196 ft | 438 kts | 292° |
| 2026-05-05 22:17 | 55.97439 | -19.85384 | 34196 ft | 438 kts | 292° |
| 2026-05-05 22:17 | 55.99273 | -19.95769 | 34196 ft | 438 kts | 292° |
| 2026-05-05 22:18 | 56.01261 | -20.06024 | 34199 ft | 434 kts | 298° |
| 2026-05-05 22:18 | 56.03825 | -20.15750 | 34210 ft | 432 kts | 300° |
| 2026-05-05 22:19 | 56.06365 | -20.25491 | 34205 ft | 432 kts | 298° |
| 2026-05-05 22:19 | 56.08835 | -20.35300 | 34190 ft | 432 kts | 298° |
| 2026-05-05 22:20 | 56.11283 | -20.45134 | 34192 ft | 432 kts | 298° |
| 2026-05-05 22:20 | 56.13722 | -20.54985 | 34197 ft | 433 kts | 298° |
| 2026-05-05 22:21 | 56.16154 | -20.64864 | 34196 ft | 433 kts | 298° |
| 2026-05-05 22:21 | 56.18577 | -20.74759 | 34223 ft | 432 kts | 297° |
| 2026-05-05 22:22 | 56.20984 | -20.84640 | 34211 ft | 432 kts | 297° |
| 2026-05-05 22:22 | 56.23380 | -20.94520 | 34207 ft | 431 kts | 297° |
| 2026-05-05 22:23 | 56.25364 | -21.02734 | 34199 ft | 431 kts | 297° |
| 2026-05-05 22:23 | 56.28142 | -21.14285 | 34193 ft | 431 kts | 297° |
| 2026-05-05 22:24 | 56.30116 | -21.22532 | 34195 ft | 431 kts | 297° |
| 2026-05-05 22:24 | 56.32484 | -21.32464 | 34194 ft | 432 kts | 297° |
| 2026-05-05 22:25 | 56.35227 | -21.44029 | 34213 ft | 431 kts | 297° |
| 2026-05-05 22:25 | 56.37195 | -21.52363 | 34209 ft | 431 kts | 297° |
| 2026-05-05 22:26 | 56.39532 | -21.62309 | 34200 ft | 430 kts | 297° |
| 2026-05-05 22:26 | 56.41859 | -21.72253 | 34197 ft | 430 kts | 296° |
| 2026-05-05 22:27 | 56.44180 | -21.82219 | 34193 ft | 430 kts | 296° |
| 2026-05-05 22:27 | 56.46478 | -21.92128 | 34179 ft | 431 kts | 296° |
| 2026-05-05 22:28 | 56.48790 | -22.02143 | 34186 ft | 431 kts | 296° |
| 2026-05-05 22:28 | 56.51091 | -22.12164 | 34207 ft | 431 kts | 296° |
| 2026-05-05 22:29 | 56.53383 | -22.22191 | 34203 ft | 430 kts | 296° |
| 2026-05-05 22:29 | 56.55661 | -22.32208 | 34198 ft | 430 kts | 296° |
| 2026-05-05 22:30 | 56.57933 | -22.42240 | 34193 ft | 430 kts | 296° |
| 2026-05-05 22:30 | 56.60193 | -22.52269 | 34194 ft | 429 kts | 296° |
| 2026-05-05 22:31 | 56.62445 | -22.62311 | 34156 ft | 430 kts | 296° |
| 2026-05-05 22:31 | 56.64693 | -22.72385 | 34173 ft | 431 kts | 296° |
| 2026-05-05 22:32 | 56.66939 | -22.82497 | 34182 ft | 432 kts | 295° |
| 2026-05-05 22:32 | 56.69180 | -22.92633 | 34185 ft | 432 kts | 295° |
| 2026-05-05 22:33 | 56.71416 | -23.02801 | 34189 ft | 433 kts | 295° |
| 2026-05-05 22:33 | 56.73646 | -23.12991 | 34191 ft | 433 kts | 295° |
| 2026-05-05 22:34 | 56.75869 | -23.23198 | 34191 ft | 433 kts | 295° |
| 2026-05-05 22:34 | 56.78084 | -23.33416 | 34192 ft | 433 kts | 295° |
| 2026-05-05 22:35 | 56.80290 | -23.43646 | 34169 ft | 434 kts | 295° |
| 2026-05-05 22:35 | 56.82492 | -23.53904 | 34191 ft | 434 kts | 295° |
| 2026-05-05 22:36 | 56.84685 | -23.64174 | 34188 ft | 434 kts | 295° |
| 2026-05-05 22:36 | 56.86870 | -23.74461 | 34190 ft | 434 kts | 295° |
| 2026-05-05 22:37 | 56.89048 | -23.84765 | 34190 ft | 434 kts | 295° |
| 2026-05-05 22:37 | 56.91202 | -23.95007 | 34191 ft | 434 kts | 294° |
| 2026-05-05 22:38 | 56.93362 | -24.05332 | 34191 ft | 434 kts | 294° |
| 2026-05-05 22:38 | 56.95527 | -24.15733 | 34189 ft | 434 kts | 294° |
| 2026-05-05 22:39 | 56.97653 | -24.25996 | 34192 ft | 433 kts | 294° |
| 2026-05-05 22:39 | 56.99779 | -24.36312 | 34187 ft | 432 kts | 294° |
| 2026-05-05 22:40 | 57.01896 | -24.46638 | 34180 ft | 432 kts | 294° |
| 2026-05-05 22:40 | 57.04004 | -24.56972 | 34184 ft | 432 kts | 294° |
| 2026-05-05 22:41 | 57.06101 | -24.67311 | 34189 ft | 432 kts | 294° |
| 2026-05-05 22:41 | 57.08191 | -24.77663 | 34185 ft | 432 kts | 294° |
| 2026-05-05 22:42 | 57.10274 | -24.88039 | 34180 ft | 432 kts | 294° |
| 2026-05-05 22:42 | 57.12344 | -24.98401 | 34197 ft | 431 kts | 294° |
| 2026-05-05 22:43 | 57.14402 | -25.08760 | 34194 ft | 431 kts | 294° |
| 2026-05-05 22:43 | 57.16451 | -25.19126 | 34185 ft | 430 kts | 293° |
| 2026-05-05 22:44 | 57.18489 | -25.29491 | 34186 ft | 430 kts | 293° |
| 2026-05-05 22:44 | 57.20519 | -25.39874 | 34184 ft | 430 kts | 293° |
| 2026-05-05 22:45 | 57.22540 | -25.50260 | 34181 ft | 430 kts | 293° |
| 2026-05-05 22:45 | 57.24553 | -25.60665 | 34182 ft | 430 kts | 293° |
| 2026-05-05 22:46 | 57.26554 | -25.71062 | 34199 ft | 429 kts | 293° |
| 2026-05-05 22:46 | 57.28527 | -25.81371 | 34184 ft | 428 kts | 293° |
| 2026-05-05 22:47 | 57.30520 | -25.91835 | 34139 ft | 429 kts | 292° |
| 2026-05-05 22:47 | 57.32497 | -26.02273 | 34156 ft | 431 kts | 292° |
| 2026-05-05 22:48 | 57.34454 | -26.12666 | 34171 ft | 432 kts | 292° |
| 2026-05-05 22:48 | 57.36426 | -26.23192 | 34174 ft | 432 kts | 292° |
| 2026-05-05 22:49 | 57.38388 | -26.33729 | 34183 ft | 433 kts | 292° |
| 2026-05-05 22:49 | 57.40342 | -26.44275 | 34189 ft | 432 kts | 292° |
| 2026-05-05 22:50 | 57.42282 | -26.54811 | 34185 ft | 431 kts | 292° |
| 2026-05-05 22:50 | 57.44211 | -26.65342 | 34183 ft | 431 kts | 292° |
| 2026-05-05 22:51 | 57.46136 | -26.75900 | 34152 ft | 432 kts | 291° |
| 2026-05-05 22:51 | 57.48058 | -26.86512 | 34166 ft | 434 kts | 291° |
| 2026-05-05 22:52 | 57.49974 | -26.97158 | 34170 ft | 435 kts | 291° |
| 2026-05-05 22:52 | 57.51886 | -27.07833 | 34173 ft | 435 kts | 291° |
| 2026-05-05 22:53 | 57.53788 | -27.18518 | 34187 ft | 435 kts | 291° |
| 2026-05-05 22:53 | 57.55679 | -27.29203 | 34178 ft | 435 kts | 291° |
| 2026-05-05 22:54 | 57.57561 | -27.39899 | 34175 ft | 434 kts | 291° |
| 2026-05-05 22:54 | 57.59432 | -27.50597 | 34174 ft | 434 kts | 291° |
| 2026-05-05 22:55 | 57.61299 | -27.61321 | 34152 ft | 436 kts | 290° |
| 2026-05-05 22:55 | 57.63161 | -27.72092 | 34164 ft | 437 kts | 290° |
| 2026-05-05 22:56 | 57.65007 | -27.82830 | 34171 ft | 438 kts | 290° |
| 2026-05-05 22:56 | 57.66870 | -27.93738 | 34183 ft | 438 kts | 290° |
| 2026-05-05 22:57 | 57.68701 | -28.04522 | 34185 ft | 438 kts | 290° |
| 2026-05-05 22:57 | 57.70535 | -28.15388 | 34177 ft | 438 kts | 290° |
| 2026-05-05 22:58 | 57.72361 | -28.26273 | 34183 ft | 439 kts | 290° |
| 2026-05-05 22:58 | 57.74176 | -28.37159 | 34184 ft | 439 kts | 290° |
| 2026-05-05 22:59 | 57.75989 | -28.48090 | 34154 ft | 440 kts | 289° |
| 2026-05-05 22:59 | 57.77797 | -28.59075 | 34164 ft | 442 kts | 289° |
| 2026-05-05 23:00 | 57.80496 | -28.75598 | 34185 ft | 442 kts | 289° |
| 2026-05-05 23:00 | 57.82284 | -28.86627 | 34186 ft | 442 kts | 289° |
| 2026-05-05 23:01 | 57.84065 | -28.97684 | 34190 ft | 442 kts | 289° |
| 2026-05-05 23:01 | 57.85834 | -29.08737 | 34186 ft | 442 kts | 289° |
| 2026-05-05 23:02 | 57.87595 | -29.19813 | 34188 ft | 442 kts | 289° |
| 2026-05-05 23:02 | 57.89351 | -29.30912 | 34160 ft | 444 kts | 288° |
| 2026-05-05 23:03 | 57.91100 | -29.42063 | 34171 ft | 445 kts | 288° |
| 2026-05-05 23:03 | 57.92844 | -29.53252 | 34182 ft | 446 kts | 288° |
| 2026-05-05 23:04 | 57.94587 | -29.64465 | 34191 ft | 447 kts | 288° |
| 2026-05-05 23:04 | 57.96324 | -29.75687 | 34192 ft | 447 kts | 288° |
| 2026-05-05 23:05 | 57.98054 | -29.86940 | 34191 ft | 447 kts | 288° |
| 2026-05-05 23:05 | 57.99527 | -29.98239 | 34196 ft | 448 kts | 283° |
| 2026-05-05 23:06 | 58.00385 | -30.09900 | 34196 ft | 450 kts | 276° |
| 2026-05-05 23:06 | 58.00790 | -30.21712 | 34177 ft | 452 kts | 276° |
| 2026-05-05 23:07 | 58.01248 | -30.33551 | 34191 ft | 453 kts | 276° |
| 2026-05-05 23:07 | 58.01695 | -30.45413 | 34197 ft | 454 kts | 276° |
| 2026-05-05 23:08 | 58.02126 | -30.57302 | 34202 ft | 454 kts | 276° |
| 2026-05-05 23:08 | 58.02538 | -30.69199 | 34203 ft | 455 kts | 276° |
| 2026-05-05 23:09 | 58.02936 | -30.81103 | 34205 ft | 455 kts | 276° |
| 2026-05-05 23:09 | 58.03324 | -30.93035 | 34174 ft | 457 kts | 275° |
| 2026-05-05 23:10 | 58.03702 | -31.05040 | 34194 ft | 459 kts | 275° |
| 2026-05-05 23:10 | 58.04068 | -31.17084 | 34207 ft | 460 kts | 275° |
| 2026-05-05 23:11 | 58.04425 | -31.29150 | 34209 ft | 461 kts | 275° |
| 2026-05-05 23:11 | 58.04770 | -31.41228 | 34211 ft | 461 kts | 275° |
| 2026-05-05 23:12 | 58.05050 | -31.51279 | 34217 ft | 461 kts | 275° |
| 2026-05-05 23:12 | 58.05376 | -31.63374 | 34181 ft | 463 kts | 274° |
| 2026-05-05 23:13 | 58.05692 | -31.75533 | 34196 ft | 465 kts | 274° |
| 2026-05-05 23:13 | 58.05996 | -31.87750 | 34210 ft | 466 kts | 274° |
| 2026-05-05 23:14 | 58.06289 | -31.99985 | 34216 ft | 467 kts | 274° |
| 2026-05-05 23:14 | 58.06571 | -32.12241 | 34220 ft | 467 kts | 274° |
| 2026-05-05 23:15 | 58.06842 | -32.24506 | 34222 ft | 467 kts | 274° |
| 2026-05-05 23:15 | 58.07100 | -32.36691 | 34203 ft | 468 kts | 273° |
| 2026-05-05 23:16 | 58.07350 | -32.49015 | 34203 ft | 470 kts | 273° |
| 2026-05-05 23:16 | 58.07586 | -32.61379 | 34213 ft | 472 kts | 272° |
| 2026-05-05 23:17 | 58.07811 | -32.73760 | 34219 ft | 472 kts | 272° |
| 2026-05-05 23:17 | 58.08025 | -32.86168 | 34222 ft | 472 kts | 272° |
| 2026-05-05 23:18 | 58.08227 | -32.98576 | 34226 ft | 472 kts | 272° |
| 2026-05-05 23:18 | 58.08417 | -33.10994 | 34226 ft | 472 kts | 272° |
| 2026-05-05 23:19 | 58.08594 | -33.23402 | 34225 ft | 472 kts | 272° |
| 2026-05-05 23:19 | 58.08760 | -33.35814 | 34224 ft | 472 kts | 272° |
| 2026-05-05 23:20 | 58.08912 | -33.48220 | 34226 ft | 472 kts | 272° |
| 2026-05-05 23:20 | 58.09054 | -33.60622 | 34225 ft | 472 kts | 272° |
| 2026-05-05 23:21 | 58.09184 | -33.73024 | 34224 ft | 472 kts | 272° |
| 2026-05-05 23:21 | 58.09302 | -33.85414 | 34216 ft | 472 kts | 271° |
| 2026-05-05 23:22 | 58.09409 | -33.97872 | 34200 ft | 475 kts | 271° |
| 2026-05-05 23:22 | 58.09501 | -34.10358 | 34212 ft | 476 kts | 271° |
| 2026-05-05 23:23 | 58.09583 | -34.22878 | 34221 ft | 477 kts | 271° |
| 2026-05-05 23:23 | 58.09652 | -34.35413 | 34228 ft | 477 kts | 271° |
| 2026-05-05 23:24 | 58.09709 | -34.47953 | 34225 ft | 477 kts | 271° |
| 2026-05-05 23:24 | 58.09754 | -34.60512 | 34221 ft | 479 kts | 270° |
| 2026-05-05 23:25 | 58.09790 | -34.73133 | 34211 ft | 481 kts | 270° |
| 2026-05-05 23:25 | 58.09808 | -34.85784 | 34223 ft | 482 kts | 270° |
| 2026-05-05 23:26 | 58.09816 | -34.98456 | 34224 ft | 482 kts | 270° |
| 2026-05-05 23:26 | 58.09811 | -35.11140 | 34227 ft | 482 kts | 269° |
| 2026-05-05 23:27 | 58.09793 | -35.23827 | 34225 ft | 483 kts | 269° |
| 2026-05-05 23:27 | 58.09764 | -35.36511 | 34222 ft | 483 kts | 269° |
| 2026-05-05 23:28 | 58.09723 | -35.49239 | 34220 ft | 484 kts | 269° |
| 2026-05-05 23:28 | 58.09665 | -35.61986 | 34215 ft | 486 kts | 269° |
| 2026-05-05 23:29 | 58.09597 | -35.74741 | 34222 ft | 486 kts | 269° |
| 2026-05-05 23:29 | 58.09515 | -35.87538 | 34226 ft | 487 kts | 268° |
| 2026-05-05 23:30 | 58.09421 | -36.00334 | 34229 ft | 487 kts | 268° |
| 2026-05-05 23:30 | 58.09317 | -36.13133 | 34211 ft | 488 kts | 268° |
| 2026-05-05 23:31 | 58.09197 | -36.25977 | 34221 ft | 489 kts | 268° |
| 2026-05-05 23:31 | 58.09063 | -36.38744 | 34226 ft | 489 kts | 267° |
| 2026-05-05 23:32 | 58.08916 | -36.51611 | 34232 ft | 490 kts | 267° |
| 2026-05-05 23:32 | 58.08756 | -36.64475 | 34227 ft | 490 kts | 267° |
| 2026-05-05 23:33 | 58.08583 | -36.77359 | 34230 ft | 490 kts | 267° |
| 2026-05-05 23:33 | 58.08400 | -36.90252 | 34214 ft | 492 kts | 266° |
| 2026-05-05 23:34 | 58.08200 | -37.03188 | 34222 ft | 493 kts | 266° |
| 2026-05-05 23:34 | 58.07986 | -37.16140 | 34225 ft | 493 kts | 266° |
| 2026-05-05 23:35 | 58.07760 | -37.29106 | 34228 ft | 494 kts | 266° |
| 2026-05-05 23:35 | 58.07521 | -37.42074 | 34230 ft | 494 kts | 266° |
| 2026-05-05 23:36 | 58.07268 | -37.55040 | 34227 ft | 494 kts | 266° |
| 2026-05-05 23:36 | 58.07004 | -37.68037 | 34201 ft | 497 kts | 265° |
| 2026-05-05 23:37 | 58.06721 | -37.81097 | 34210 ft | 498 kts | 265° |
| 2026-05-05 23:37 | 58.06426 | -37.94183 | 34217 ft | 499 kts | 265° |
| 2026-05-05 23:38 | 58.06117 | -38.07273 | 34217 ft | 499 kts | 265° |
| 2026-05-05 23:38 | 58.05794 | -38.20376 | 34224 ft | 499 kts | 265° |
| 2026-05-05 23:39 | 58.05459 | -38.33479 | 34255 ft | 500 kts | 264° |
| 2026-05-05 23:39 | 58.05111 | -38.46538 | 34213 ft | 502 kts | 264° |
| 2026-05-05 23:40 | 58.04745 | -38.59719 | 34216 ft | 503 kts | 264° |
| 2026-05-05 23:40 | 58.04366 | -38.72908 | 34222 ft | 503 kts | 264° |
| 2026-05-05 23:41 | 58.03972 | -38.86113 | 34213 ft | 504 kts | 264° |
| 2026-05-05 23:41 | 58.03565 | -38.99327 | 34212 ft | 505 kts | 264° |
| 2026-05-05 23:42 | 58.03145 | -39.12563 | 34188 ft | 507 kts | 263° |
| 2026-05-05 23:42 | 58.02708 | -39.25867 | 34203 ft | 509 kts | 263° |
| 2026-05-05 23:43 | 58.02253 | -39.39192 | 34213 ft | 509 kts | 263° |
| 2026-05-05 23:43 | 58.01786 | -39.52531 | 34209 ft | 510 kts | 263° |
| 2026-05-05 23:44 | 58.01309 | -39.65874 | 34213 ft | 510 kts | 263° |
| 2026-05-05 23:44 | 58.00825 | -39.79222 | 34213 ft | 510 kts | 263° |
| 2026-05-05 23:45 | 58.00294 | -39.92594 | 34187 ft | 512 kts | 259° |
| 2026-05-05 23:45 | 57.99105 | -40.05782 | 34201 ft | 508 kts | 252° |
| 2026-05-05 23:46 | 57.97147 | -40.18528 | 34207 ft | 507 kts | 249° |
| 2026-05-05 23:46 | 57.95185 | -40.31289 | 34214 ft | 508 kts | 249° |
| 2026-05-05 23:47 | 57.93247 | -40.43966 | 34211 ft | 508 kts | 249° |
| 2026-05-05 23:47 | 57.91275 | -40.56735 | 34210 ft | 508 kts | 249° |
| 2026-05-05 23:48 | 57.89285 | -40.69469 | 34206 ft | 508 kts | 249° |
| 2026-05-05 23:48 | 57.87276 | -40.82184 | 34206 ft | 507 kts | 249° |
| 2026-05-05 23:49 | 57.85254 | -40.94883 | 34195 ft | 507 kts | 248° |
| 2026-05-05 23:49 | 57.83219 | -41.07560 | 34199 ft | 507 kts | 248° |
| 2026-05-05 23:50 | 57.81166 | -41.20275 | 34172 ft | 510 kts | 248° |
| 2026-05-05 23:50 | 57.79090 | -41.33015 | 34171 ft | 511 kts | 248° |
| 2026-05-05 23:51 | 57.77002 | -41.45746 | 34177 ft | 512 kts | 247° |
| 2026-05-05 23:51 | 57.74899 | -41.58472 | 34176 ft | 512 kts | 247° |
| 2026-05-05 23:52 | 57.72783 | -41.71193 | 34227 ft | 512 kts | 247° |
| 2026-05-05 23:52 | 57.70650 | -41.83913 | 34167 ft | 512 kts | 247° |
| 2026-05-05 23:53 | 57.68506 | -41.96616 | 34165 ft | 512 kts | 247° |
| 2026-05-05 23:53 | 57.66365 | -42.09210 | 34152 ft | 512 kts | 247° |
| 2026-05-05 23:54 | 57.64199 | -42.21859 | 34151 ft | 512 kts | 246° |
| 2026-05-05 23:54 | 57.62019 | -42.34495 | 34185 ft | 511 kts | 247° |
| 2026-05-05 23:55 | 57.59837 | -42.47056 | 34169 ft | 508 kts | 247° |
| 2026-05-05 23:55 | 57.57654 | -42.59543 | 34144 ft | 506 kts | 247° |
| 2026-05-05 23:56 | 57.55465 | -42.71978 | 34133 ft | 505 kts | 247° |
| 2026-05-05 23:56 | 57.53265 | -42.84394 | 34107 ft | 505 kts | 246° |
| 2026-05-05 23:57 | 57.51048 | -42.96803 | 34159 ft | 505 kts | 247° |
| 2026-05-05 23:57 | 57.48827 | -43.09171 | 34124 ft | 504 kts | 246° |
| 2026-05-05 23:58 | 57.46599 | -43.21500 | 34118 ft | 503 kts | 246° |
| 2026-05-05 23:58 | 57.44359 | -43.33810 | 34102 ft | 503 kts | 246° |
| 2026-05-05 23:59 | 57.42108 | -43.46093 | 34105 ft | 503 kts | 246° |
| 2026-05-05 23:59 | 57.39846 | -43.58353 | 34112 ft | 502 kts | 247° |
| 2026-05-06 00:00 | 57.37962 | -43.68515 | 34108 ft | 501 kts | 246° |
| 2026-05-06 00:00 | 57.35691 | -43.80689 | 34096 ft | 500 kts | 246° |
| 2026-05-06 00:01 | 57.33410 | -43.92831 | 34094 ft | 499 kts | 246° |
| 2026-05-06 00:01 | 57.31116 | -44.04969 | 34076 ft | 499 kts | 246° |
| 2026-05-06 00:02 | 57.28439 | -44.19030 | 34098 ft | 498 kts | 246° |
| 2026-05-06 00:02 | 57.26509 | -44.29117 | 34079 ft | 496 kts | 246° |
| 2026-05-06 00:03 | 57.24195 | -44.41137 | 34057 ft | 497 kts | 246° |
| 2026-05-06 00:03 | 57.21867 | -44.53149 | 34056 ft | 497 kts | 246° |
| 2026-05-06 00:04 | 57.19525 | -44.65163 | 34055 ft | 498 kts | 246° |
| 2026-05-06 00:04 | 57.17173 | -44.77148 | 34072 ft | 496 kts | 246° |
| 2026-05-06 00:05 | 57.13641 | -44.95021 | 34049 ft | 494 kts | 246° |
| 2026-05-06 00:06 | 57.11275 | -45.06900 | 34045 ft | 494 kts | 246° |
| 2026-05-06 00:06 | 57.08900 | -45.18753 | 34035 ft | 494 kts | 246° |
| 2026-05-06 00:07 | 57.06516 | -45.30577 | 34056 ft | 493 kts | 246° |
| 2026-05-06 00:07 | 57.04143 | -45.42281 | 34034 ft | 491 kts | 246° |
| 2026-05-06 00:08 | 57.01752 | -45.54010 | 34017 ft | 490 kts | 246° |
| 2026-05-06 00:08 | 56.99353 | -45.65706 | 34009 ft | 490 kts | 246° |
| 2026-05-06 00:09 | 56.96943 | -45.77383 | 34011 ft | 489 kts | 246° |
| 2026-05-06 00:09 | 56.94523 | -45.89041 | 34005 ft | 490 kts | 246° |
| 2026-05-06 00:10 | 56.92092 | -46.00687 | 33995 ft | 490 kts | 246° |
| 2026-05-06 00:10 | 56.89652 | -46.12314 | 34000 ft | 489 kts | 246° |
| 2026-05-06 00:11 | 56.87200 | -46.23926 | 33995 ft | 489 kts | 246° |
| 2026-05-06 00:11 | 56.84739 | -46.35514 | 33989 ft | 489 kts | 246° |
| 2026-05-06 00:12 | 56.82267 | -46.47091 | 33988 ft | 489 kts | 246° |
| 2026-05-06 00:12 | 56.79783 | -46.58654 | 33971 ft | 489 kts | 246° |
| 2026-05-06 00:13 | 56.77288 | -46.70209 | 33980 ft | 489 kts | 245° |
| 2026-05-06 00:13 | 56.74783 | -46.81742 | 33966 ft | 489 kts | 245° |
| 2026-05-06 00:14 | 56.72267 | -46.93260 | 33965 ft | 489 kts | 245° |
| 2026-05-06 00:14 | 56.69757 | -47.04684 | 33969 ft | 489 kts | 245° |
| 2026-05-06 00:15 | 56.67225 | -47.16153 | 33963 ft | 488 kts | 245° |
| 2026-05-06 00:15 | 56.64687 | -47.27586 | 33946 ft | 488 kts | 245° |
| 2026-05-06 00:16 | 56.62133 | -47.39025 | 33938 ft | 489 kts | 245° |
| 2026-05-06 00:16 | 56.59569 | -47.50447 | 33930 ft | 489 kts | 245° |
| 2026-05-06 00:17 | 56.56992 | -47.61861 | 33941 ft | 488 kts | 245° |
| 2026-05-06 00:17 | 56.54410 | -47.73243 | 33926 ft | 488 kts | 245° |
| 2026-05-06 00:18 | 56.51819 | -47.84602 | 33925 ft | 488 kts | 245° |
| 2026-05-06 00:18 | 56.49220 | -47.95937 | 33914 ft | 487 kts | 245° |
| 2026-05-06 00:19 | 56.46609 | -48.07254 | 33912 ft | 487 kts | 245° |
| 2026-05-06 00:19 | 56.43994 | -48.18538 | 33918 ft | 486 kts | 245° |
| 2026-05-06 00:20 | 56.41376 | -48.29764 | 33907 ft | 484 kts | 245° |
| 2026-05-06 00:20 | 56.38753 | -48.40957 | 33898 ft | 484 kts | 245° |
| 2026-05-06 00:21 | 56.36125 | -48.52124 | 33895 ft | 483 kts | 244° |
| 2026-05-06 00:21 | 56.33486 | -48.63260 | 33875 ft | 483 kts | 245° |
| 2026-05-06 00:22 | 56.30845 | -48.74377 | 33892 ft | 482 kts | 244° |
| 2026-05-06 00:22 | 56.28201 | -48.85438 | 33881 ft | 481 kts | 244° |
| 2026-05-06 00:23 | 56.25548 | -48.96469 | 33862 ft | 480 kts | 244° |
| 2026-05-06 00:23 | 56.22888 | -49.07481 | 33873 ft | 480 kts | 244° |
| 2026-05-06 00:24 | 56.20222 | -49.18462 | 33861 ft | 480 kts | 245° |
| 2026-05-06 00:24 | 56.17564 | -49.29347 | 33858 ft | 478 kts | 244° |
| 2026-05-06 00:25 | 56.14875 | -49.40311 | 33851 ft | 477 kts | 245° |
| 2026-05-06 00:25 | 56.12214 | -49.51093 | 33845 ft | 476 kts | 245° |
| 2026-05-06 00:26 | 56.09535 | -49.61923 | 33842 ft | 475 kts | 244° |
| 2026-05-06 00:26 | 56.06853 | -49.72732 | 33824 ft | 475 kts | 244° |
| 2026-05-06 00:27 | 56.04166 | -49.83509 | 33863 ft | 473 kts | 245° |
| 2026-05-06 00:27 | 56.01480 | -49.94242 | 33855 ft | 472 kts | 245° |
| 2026-05-06 00:28 | 55.98766 | -50.04917 | 33854 ft | 471 kts | 244° |
| 2026-05-06 00:28 | 55.96150 | -50.15652 | 33825 ft | 472 kts | 246° |
| 2026-05-06 00:29 | 55.93588 | -50.26425 | 33826 ft | 472 kts | 246° |
| 2026-05-06 00:29 | 55.91000 | -50.37145 | 33821 ft | 470 kts | 246° |
| 2026-05-06 00:30 | 55.88401 | -50.47818 | 33816 ft | 469 kts | 246° |
| 2026-05-06 00:30 | 55.85788 | -50.58457 | 33814 ft | 469 kts | 246° |
| 2026-05-06 00:31 | 55.83185 | -50.68999 | 33811 ft | 468 kts | 246° |
| 2026-05-06 00:31 | 55.80558 | -50.79592 | 33794 ft | 468 kts | 246° |
| 2026-05-06 00:32 | 55.77921 | -50.90164 | 33823 ft | 467 kts | 246° |
| 2026-05-06 00:32 | 55.75282 | -51.00706 | 33792 ft | 467 kts | 246° |
| 2026-05-06 00:33 | 55.72636 | -51.11223 | 33797 ft | 467 kts | 246° |
| 2026-05-06 00:33 | 55.69981 | -51.21723 | 33794 ft | 467 kts | 246° |
| 2026-05-06 00:34 | 55.67317 | -51.32210 | 33797 ft | 466 kts | 246° |
| 2026-05-06 00:34 | 55.64648 | -51.42664 | 33815 ft | 465 kts | 246° |